Time;durP1;ratioP1;P1;durP2;ratioP2;P2;SDS_P1;SDS_P2;PMS_P1;PMS_P2;Temp;Humidity;BMP_temperature;BMP_pressure;BME280_temperature;BME280_humidity;BME280_pressure;Samples;Min_cycle;Max_cycle;Signal;HPM_P1;HPM_P2
2022/06/11 00:00:24;;;;;;;;;;;18.10;99.90;;;;;;5109900;28;19967;-78
2022/06/11 00:02:50;;;;;;;;;;;18.10;99.90;;;;;;5109030;28;19971;-78
2022/06/11 00:05:16;;;;;;;;;;;18.10;99.90;;;;;;5109976;28;19963;-78
2022/06/11 00:07:42;;;;;;;;;;;18.10;99.90;;;;;;5127567;28;20018;-78
2022/06/11 00:10:08;;;;;;;;;;;18.10;99.90;;;;;;5116648;27;19949;-78
2022/06/11 00:12:34;;;;;;;;;;;18.00;99.90;;;;;;5110196;28;20388;-78
2022/06/11 00:14:59;;;;;;;;;;;18.00;99.90;;;;;;5109795;28;19931;-79
2022/06/11 00:17:25;;;;;;;;;;;17.90;99.90;;;;;;5109918;28;19963;-78
2022/06/11 00:19:52;;;;;;;;;;;17.90;99.90;;;;;;5109390;28;19931;-78
2022/06/11 00:22:18;;;;;;;;;;;17.90;99.90;;;;;;5109917;28;19924;-78
2022/06/11 00:24:44;;;;;;;;;;;17.80;99.90;;;;;;5108876;28;19924;-78
2022/06/11 00:27:10;;;;;;;;;;;17.90;99.90;;;;;;5109690;28;19935;-78
2022/06/11 00:29:37;;;;;;;;;;;17.80;99.90;;;;;;5128190;28;19934;-78
2022/06/11 00:32:02;;;;;;;;;;;17.80;99.90;;;;;;5118168;28;19930;-78
2022/06/11 00:34:28;;;;;;;;;;;17.90;99.90;;;;;;5128170;27;19923;-78
2022/06/11 00:36:54;;;;;;;;;;;17.90;99.90;;;;;;5122165;27;20389;-79
2022/06/11 00:39:21;;;;;;;;;;;17.90;99.90;;;;;;5115930;27;20305;-78
2022/06/11 00:41:49;;;;;;;;;;;17.90;99.90;;;;;;5121383;27;19923;-79
2022/06/11 00:44:15;;;;;;;;;;;17.80;99.90;;;;;;5111336;28;19930;-78
2022/06/11 00:46:54;;;;;;;;;;;17.80;99.90;;;;;;5127080;27;19962;-78
2022/06/11 00:49:28;;;;;;;;;;;17.90;99.90;;;;;;5125207;27;19923;-78
2022/06/11 00:52:03;;;;;;;;;;;17.80;99.90;;;;;;5112538;28;19924;-78
2022/06/11 00:54:30;;;;;;;;;;;17.80;99.90;;;;;;5112886;27;20335;-79
2022/06/11 00:56:56;;;;;;;;;;;17.70;99.90;;;;;;5127135;27;20449;-78
2022/06/11 00:59:33;;;;;;;;;;;17.70;99.90;;;;;;5112322;28;19930;-78
2022/06/11 01:01:59;;;;;;;;;;;17.70;99.90;;;;;;5112011;28;19969;-78
2022/06/11 01:04:42;;;;;;;;;;;17.60;99.90;;;;;;5102891;28;19923;-78
2022/06/11 01:07:07;;;;;;;;;;;17.50;99.90;;;;;;5112010;28;19988;-78
2022/06/11 01:09:50;;;;;;;;;;;17.50;99.90;;;;;;5112119;28;19928;-79
2022/06/11 01:12:27;;;;;;;;;;;17.30;99.90;;;;;;5117627;27;20401;-79
2022/06/11 01:15:12;;;;;;;;;;;17.30;99.90;;;;;;5118631;27;19924;-79
2022/06/11 01:17:51;;;;;;;;;;;17.20;99.90;;;;;;5118133;27;19927;-78
2022/06/11 01:20:17;;;;;;;;;;;17.10;99.90;;;;;;5132125;27;19928;-78
2022/06/11 01:23:01;;;;;;;;;;;17.10;99.90;;;;;;5128078;27;20025;-79
2022/06/11 01:25:59;;;;;;;;;;;17.00;99.90;;;;;;5114324;27;19923;-78
2022/06/11 01:28:26;;;;;;;;;;;17.00;99.90;;;;;;5097573;27;19976;-78
2022/06/11 01:30:56;;;;;;;;;;;16.90;99.90;;;;;;5129542;27;19940;-78
2022/06/11 01:33:28;;;;;;;;;;;16.80;99.90;;;;;;5131282;27;20435;-78
2022/06/11 01:36:08;;;;;;;;;;;16.80;99.90;;;;;;5127891;27;20288;-78
2022/06/11 01:38:34;;;;;;;;;;;16.70;99.90;;;;;;5123384;27;20393;-78
2022/06/11 01:41:02;;;;;;;;;;;16.60;99.90;;;;;;5124791;27;19968;-78
2022/06/11 01:43:33;;;;;;;;;;;16.60;99.90;;;;;;5110637;28;20275;-78
2022/06/11 01:46:01;;;;;;;;;;;16.60;99.90;;;;;;5117605;27;20016;-78
2022/06/11 01:48:28;;;;;;;;;;;16.50;99.90;;;;;;5130744;27;19927;-79
2022/06/11 01:51:02;;;;;;;;;;;16.50;99.90;;;;;;5112497;27;19971;-79
2022/06/11 01:53:41;;;;;;;;;;;16.50;99.90;;;;;;5111299;28;19928;-79
2022/06/11 01:56:09;;;;;;;;;;;16.40;99.90;;;;;;5110856;28;19923;-79
2022/06/11 01:58:40;;;;;;;;;;;16.40;99.90;;;;;;5112109;28;19928;-78
2022/06/11 02:01:09;;;;;;;;;;;16.30;99.90;;;;;;5131845;27;20010;-78
2022/06/11 02:03:41;;;;;;;;;;;16.30;99.90;;;;;;5128971;27;19923;-78
2022/06/11 02:06:18;;;;;;;;;;;16.30;99.90;;;;;;5100829;28;19931;-79
2022/06/11 02:08:49;;;;;;;;;;;16.20;99.90;;;;;;5124204;27;20404;-79
2022/06/11 02:11:33;;;;;;;;;;;16.20;99.90;;;;;;5112099;28;19931;-78
2022/06/11 02:14:04;;;;;;;;;;;16.10;99.90;;;;;;5110771;28;19986;-78
2022/06/11 02:16:37;;;;;;;;;;;16.10;99.90;;;;;;5118149;27;19927;-78
2022/06/11 02:19:06;;;;;;;;;;;16.00;99.90;;;;;;5113770;27;19923;-78
2022/06/11 02:21:34;;;;;;;;;;;15.90;99.90;;;;;;5118863;27;19932;-78
2022/06/11 02:24:15;;;;;;;;;;;15.90;99.90;;;;;;5118166;27;19924;-79
2022/06/11 02:26:43;;;;;;;;;;;15.90;99.90;;;;;;5110705;28;20446;-78
2022/06/11 02:29:09;;;;;;;;;;;15.80;99.90;;;;;;5111396;28;19984;-78
2022/06/11 02:31:40;;;;;;;;;;;15.80;99.90;;;;;;5115693;27;19923;-78
2022/06/11 02:34:06;;;;;;;;;;;15.80;99.90;;;;;;5130945;27;19931;-78
2022/06/11 02:36:42;;;;;;;;;;;15.70;99.90;;;;;;5126858;27;19934;-79
2022/06/11 02:39:08;;;;;;;;;;;15.70;99.90;;;;;;5109818;28;19980;-78
2022/06/11 02:41:34;;;;;;;;;;;15.70;99.90;;;;;;5109680;28;19928;-78
2022/06/11 02:44:00;;;;;;;;;;;15.60;99.90;;;;;;5109922;28;19931;-78
2022/06/11 02:46:44;;;;;;;;;;;15.50;99.90;;;;;;5125328;27;20293;-78
2022/06/11 02:49:15;;;;;;;;;;;15.60;99.90;;;;;;5109592;28;19981;-79
2022/06/11 02:51:41;;;;;;;;;;;15.50;99.90;;;;;;5124274;27;19927;-78
2022/06/11 02:54:07;;;;;;;;;;;15.50;99.90;;;;;;5097956;28;19930;-78
2022/06/11 02:56:32;;;;;;;;;;;15.50;99.90;;;;;;5109400;28;20305;-79
2022/06/11 02:58:58;;;;;;;;;;;15.40;99.90;;;;;;5117416;27;19928;-78
2022/06/11 03:01:24;;;;;;;;;;;15.40;99.90;;;;;;5117752;27;19931;-78
2022/06/11 03:03:51;;;;;;;;;;;15.30;99.90;;;;;;5109917;28;19924;-78
2022/06/11 03:06:21;;;;;;;;;;;15.30;99.90;;;;;;5103294;27;19924;-78
2022/06/11 03:08:46;;;;;;;;;;;15.30;99.90;;;;;;5127758;27;19931;-78
2022/06/11 03:11:12;;;;;;;;;;;15.20;99.90;;;;;;5110244;28;19924;-78
2022/06/11 03:13:38;;;;;;;;;;;15.20;99.90;;;;;;5119240;27;19927;-78
2022/06/11 03:16:04;;;;;;;;;;;15.10;99.90;;;;;;5129618;27;19924;-79
2022/06/11 03:18:30;;;;;;;;;;;15.20;99.90;;;;;;5115787;27;20019;-78
2022/06/11 03:20:55;;;;;;;;;;;15.10;99.90;;;;;;5108872;28;19924;-78
2022/06/11 03:23:21;;;;;;;;;;;15.10;99.90;;;;;;5116801;27;20006;-78
2022/06/11 03:25:47;;;;;;;;;;;15.00;99.90;;;;;;5110824;28;19924;-78
2022/06/11 03:28:16;;;;;;;;;;;15.00;99.90;;;;;;5109326;28;19924;-79
2022/06/11 03:30:43;;;;;;;;;;;15.00;99.90;;;;;;5112752;27;20010;-78
2022/06/11 03:33:08;;;;;;;;;;;15.00;99.90;;;;;;5125682;27;19924;-78
2022/06/11 03:35:34;;;;;;;;;;;15.00;99.90;;;;;;5109191;28;19931;-78
2022/06/11 03:38:00;;;;;;;;;;;15.00;99.90;;;;;;5108915;28;19924;-78
2022/06/11 03:40:25;;;;;;;;;;;14.90;99.90;;;;;;5118613;27;19929;-78
2022/06/11 03:42:51;;;;;;;;;;;15.00;99.90;;;;;;5115382;27;19928;-79
2022/06/11 03:45:17;;;;;;;;;;;14.90;99.90;;;;;;5109135;28;19963;-79
2022/06/11 03:47:43;;;;;;;;;;;15.00;99.90;;;;;;5113811;27;20456;-78
2022/06/11 03:50:14;;;;;;;;;;;15.00;99.90;;;;;;5113177;27;19924;-78
2022/06/11 03:52:40;;;;;;;;;;;14.90;99.90;;;;;;5110463;28;19986;-78
2022/06/11 03:55:06;;;;;;;;;;;14.90;99.90;;;;;;5108557;28;20389;-78
2022/06/11 03:57:31;;;;;;;;;;;15.00;99.90;;;;;;5108952;28;19935;-79
2022/06/11 03:59:57;;;;;;;;;;;15.00;99.90;;;;;;5110253;28;19924;-78
2022/06/11 04:02:23;;;;;;;;;;;15.00;99.90;;;;;;5115329;28;20385;-78
2022/06/11 04:04:48;;;;;;;;;;;15.00;99.90;;;;;;5117999;27;19924;-79
2022/06/11 04:07:14;;;;;;;;;;;15.00;99.90;;;;;;5110448;28;19930;-79
2022/06/11 04:09:42;;;;;;;;;;;15.00;99.90;;;;;;5113083;28;19995;-78
2022/06/11 04:12:11;;;;;;;;;;;15.10;99.90;;;;;;5113052;28;19923;-78
2022/06/11 04:14:38;;;;;;;;;;;15.10;99.90;;;;;;5113143;28;19930;-78
2022/06/11 04:17:05;;;;;;;;;;;15.10;99.90;;;;;;5127121;27;19923;-78
2022/06/11 04:19:33;;;;;;;;;;;15.10;99.90;;;;;;5112889;28;19928;-78
2022/06/11 04:22:00;;;;;;;;;;;15.10;99.90;;;;;;5118284;27;20335;-78
2022/06/11 04:24:25;;;;;;;;;;;15.20;99.90;;;;;;5096988;28;19924;-78
2022/06/11 04:26:53;;;;;;;;;;;15.20;99.90;;;;;;5113174;28;19927;-78
2022/06/11 04:29:19;;;;;;;;;;;15.30;99.90;;;;;;5125474;27;19938;-78
2022/06/11 04:31:46;;;;;;;;;;;15.40;99.90;;;;;;5122673;27;20072;-78
2022/06/11 04:34:12;;;;;;;;;;;15.50;99.90;;;;;;5117821;27;19984;-78
2022/06/11 04:36:39;;;;;;;;;;;15.50;99.90;;;;;;5121009;27;20440;-78
2022/06/11 04:39:05;;;;;;;;;;;15.60;99.90;;;;;;5120792;27;20282;-78
2022/06/11 04:41:31;;;;;;;;;;;15.60;99.90;;;;;;5113573;28;19928;-78
2022/06/11 04:43:56;;;;;;;;;;;15.60;99.90;;;;;;5112808;28;19931;-78
2022/06/11 04:46:22;;;;;;;;;;;15.60;99.90;;;;;;5123827;27;20020;-78
2022/06/11 04:48:48;;;;;;;;;;;15.70;99.90;;;;;;5123278;27;19924;-78
2022/06/11 04:51:13;;;;;;;;;;;15.70;99.90;;;;;;5116977;27;19975;-78
2022/06/11 04:53:39;;;;;;;;;;;15.70;99.90;;;;;;5112541;28;20013;-78
2022/06/11 04:56:05;;;;;;;;;;;15.70;99.90;;;;;;5111952;28;19928;-79
2022/06/11 04:58:31;;;;;;;;;;;15.70;99.90;;;;;;5112012;28;19959;-78
2022/06/11 05:00:56;;;;;;;;;;;15.80;99.90;;;;;;5113394;27;19924;-78
2022/06/11 05:03:22;;;;;;;;;;;15.80;99.90;;;;;;5123363;27;19930;-79
2022/06/11 05:05:48;;;;;;;;;;;15.90;99.90;;;;;;5118297;27;20321;-78
2022/06/11 05:08:14;;;;;;;;;;;15.90;99.90;;;;;;5111975;28;20465;-78
2022/06/11 05:10:40;;;;;;;;;;;15.90;99.90;;;;;;5113239;28;19930;-78
2022/06/11 05:13:07;;;;;;;;;;;15.90;99.90;;;;;;5112319;28;20464;-78
2022/06/11 05:15:33;;;;;;;;;;;16.00;99.90;;;;;;5126450;27;20492;-78
2022/06/11 05:17:59;;;;;;;;;;;16.00;99.90;;;;;;5110907;27;20389;-78
2022/06/11 05:20:25;;;;;;;;;;;16.10;99.90;;;;;;5108521;28;19966;-78
2022/06/11 05:22:51;;;;;;;;;;;16.10;99.90;;;;;;5126293;27;19963;-78
2022/06/11 05:25:18;;;;;;;;;;;16.10;99.90;;;;;;5123116;27;19983;-78
2022/06/11 05:27:46;;;;;;;;;;;16.10;99.90;;;;;;5128488;27;19924;-78
2022/06/11 05:30:12;;;;;;;;;;;16.10;99.90;;;;;;5112893;28;20413;-78
2022/06/11 05:32:40;;;;;;;;;;;16.10;99.90;;;;;;5107650;28;19978;-79
2022/06/11 05:35:07;;;;;;;;;;;16.20;99.90;;;;;;5111528;28;19928;-78
2022/06/11 05:37:33;;;;;;;;;;;16.20;99.90;;;;;;5111381;28;19930;-78
2022/06/11 05:39:58;;;;;;;;;;;16.30;99.90;;;;;;5114917;27;20221;-79
2022/06/11 05:42:25;;;;;;;;;;;16.30;99.90;;;;;;5111116;28;19928;-79
2022/06/11 05:44:51;;;;;;;;;;;16.30;99.90;;;;;;5111404;28;19927;-78
2022/06/11 05:47:18;;;;;;;;;;;16.40;99.90;;;;;;5110913;28;20799;-78
2022/06/11 05:49:46;;;;;;;;;;;16.40;99.90;;;;;;5111559;28;19955;-79
2022/06/11 05:52:15;;;;;;;;;;;16.40;99.90;;;;;;5112464;28;19931;-79
2022/06/11 05:54:41;;;;;;;;;;;16.50;99.90;;;;;;5111266;28;19955;-78
2022/06/11 05:57:08;;;;;;;;;;;16.50;99.90;;;;;;5111954;28;19930;-78
2022/06/11 05:59:38;;;;;;;;;;;16.60;99.90;;;;;;5111408;28;20293;-79
2022/06/11 06:02:10;;;;;;;;;;;16.50;99.90;;;;;;5110906;28;19931;-79
2022/06/11 06:04:36;;;;;;;;;;;16.60;99.90;;;;;;5112345;28;19924;-78
2022/06/11 06:07:02;;;;;;;;;;;16.60;99.90;;;;;;5112148;28;20423;-78
2022/06/11 06:09:27;;;;;;;;;;;16.70;99.90;;;;;;5110325;28;20006;-78
2022/06/11 06:11:53;;;;;;;;;;;16.70;99.90;;;;;;5125588;27;19975;-79
2022/06/11 06:14:18;;;;;;;;;;;16.80;99.90;;;;;;5110617;28;19967;-79
2022/06/11 06:16:44;;;;;;;;;;;16.80;99.90;;;;;;5110372;28;19984;-78
2022/06/11 06:19:09;;;;;;;;;;;16.80;99.90;;;;;;5110895;28;20332;-78
2022/06/11 06:21:37;;;;;;;;;;;16.90;99.90;;;;;;5115969;27;19928;-78
2022/06/11 06:24:03;;;;;;;;;;;17.00;99.90;;;;;;5095463;27;19924;-78
2022/06/11 06:26:28;;;;;;;;;;;16.90;99.90;;;;;;5123285;27;19924;-79
2022/06/11 06:28:54;;;;;;;;;;;17.00;99.90;;;;;;5110534;28;19931;-78
2022/06/11 06:31:20;;;;;;;;;;;17.00;99.90;;;;;;5109409;28;19931;-78
2022/06/11 06:33:46;;;;;;;;;;;17.00;99.90;;;;;;5122073;27;20289;-78
2022/06/11 06:36:11;;;;;;;;;;;17.00;99.90;;;;;;5130517;27;20020;-78
2022/06/11 06:38:38;;;;;;;;;;;17.00;99.90;;;;;;5130539;27;19923;-78
2022/06/11 06:41:03;;;;;;;;;;;17.10;99.90;;;;;;5116441;27;19989;-79
2022/06/11 06:43:29;;;;;;;;;;;17.10;99.90;;;;;;5123056;27;20379;-78
2022/06/11 06:45:55;;;;;;;;;;;17.10;99.90;;;;;;5110972;28;19945;-79
2022/06/11 06:48:21;;;;;;;;;;;17.20;99.90;;;;;;5110128;28;19985;-79
2022/06/11 06:50:46;;;;;;;;;;;17.20;99.90;;;;;;5111355;28;19931;-78
2022/06/11 06:53:12;;;;;;;;;;;17.30;99.90;;;;;;5109865;28;20010;-78
2022/06/11 06:55:38;;;;;;;;;;;17.30;99.90;;;;;;5109375;28;19927;-78
2022/06/11 06:58:04;;;;;;;;;;;17.40;99.90;;;;;;5111150;27;19924;-78
2022/06/11 07:00:30;;;;;;;;;;;17.50;99.90;;;;;;5120659;27;19927;-79
2022/06/11 07:02:55;;;;;;;;;;;17.50;99.90;;;;;;5126177;27;19927;-78
2022/06/11 07:05:22;;;;;;;;;;;17.60;99.90;;;;;;5121594;27;19923;-78
2022/06/11 07:07:49;;;;;;;;;;;17.70;99.90;;;;;;5116290;27;19983;-79
2022/06/11 07:10:16;;;;;;;;;;;17.70;99.90;;;;;;5130736;27;19923;-79
2022/06/11 07:12:41;;;;;;;;;;;17.80;99.90;;;;;;5110726;27;19927;-78
2022/06/11 07:15:07;;;;;;;;;;;17.80;99.90;;;;;;5109310;28;19923;-79
2022/06/11 07:17:35;;;;;;;;;;;17.80;99.90;;;;;;5119733;27;19924;-78
2022/06/11 07:20:04;;;;;;;;;;;17.90;99.90;;;;;;5109897;28;20349;-79
2022/06/11 07:22:40;;;;;;;;;;;17.90;99.90;;;;;;5109509;28;20416;-78
2022/06/11 07:25:07;;;;;;;;;;;17.90;99.90;;;;;;5109875;28;19927;-78
2022/06/11 07:27:33;;;;;;;;;;;18.00;99.90;;;;;;5108908;28;19931;-78
2022/06/11 07:30:03;;;;;;;;;;;18.00;99.90;;;;;;5110502;28;19924;-78
2022/06/11 07:32:35;;;;;;;;;;;18.00;99.90;;;;;;5119929;27;19923;-79
2022/06/11 07:35:01;;;;;;;;;;;18.10;99.90;;;;;;5109089;28;19931;-78
2022/06/11 07:37:26;;;;;;;;;;;18.20;99.90;;;;;;5109378;28;19923;-79
2022/06/11 07:39:52;;;;;;;;;;;18.20;99.90;;;;;;5110248;28;20048;-78
2022/06/11 07:42:17;;;;;;;;;;;18.30;99.90;;;;;;5109391;28;19924;-78
2022/06/11 07:44:43;;;;;;;;;;;18.40;99.90;;;;;;5110544;28;19930;-78
2022/06/11 07:47:08;;;;;;;;;;;18.40;99.90;;;;;;5110569;28;19931;-75
2022/06/11 07:49:34;;;;;;;;;;;18.50;99.90;;;;;;5124206;27;20293;-76
2022/06/11 07:51:59;;;;;;;;;;;18.50;99.90;;;;;;5107851;28;20024;-77
2022/06/11 07:54:25;;;;;;;;;;;18.50;99.90;;;;;;5121098;27;19929;-78
2022/06/11 07:56:51;;;;;;;;;;;18.60;99.90;;;;;;5110752;27;19955;-79
2022/06/11 07:59:16;;;;;;;;;;;18.60;99.90;;;;;;5112417;27;19924;-75
2022/06/11 08:01:42;;;;;;;;;;;18.70;99.90;;;;;;5111572;28;19924;-76
2022/06/11 08:04:07;;;;;;;;;;;18.80;99.90;;;;;;5111407;28;19923;-76
2022/06/11 08:06:33;;;;;;;;;;;18.90;99.90;;;;;;5110499;28;19930;-78
2022/06/11 08:08:59;;;;;;;;;;;18.90;99.90;;;;;;5115555;28;20713;-79
2022/06/11 08:11:24;;;;;;;;;;;18.90;99.90;;;;;;5112782;28;19978;-76
2022/06/11 08:13:50;;;;;;;;;;;19.10;99.90;;;;;;5112200;28;19930;-76
2022/06/11 08:16:16;;;;;;;;;;;19.20;99.90;;;;;;5108197;28;19924;-76
2022/06/11 08:18:42;;;;;;;;;;;19.30;99.90;;;;;;5121206;27;19924;-77
2022/06/11 08:21:08;;;;;;;;;;;19.30;99.90;;;;;;5123346;27;20388;-76
2022/06/11 08:23:33;;;;;;;;;;;19.30;99.90;;;;;;5126170;28;19924;-78
2022/06/11 08:25:59;;;;;;;;;;;19.50;99.90;;;;;;5129760;27;19923;-78
2022/06/11 08:28:25;;;;;;;;;;;19.50;99.90;;;;;;5117806;27;20046;-78
2022/06/11 08:30:51;;;;;;;;;;;19.50;99.90;;;;;;5110732;27;20331;-78
2022/06/11 08:33:17;;;;;;;;;;;19.60;99.90;;;;;;5110259;28;19959;-78
2022/06/11 08:35:43;;;;;;;;;;;19.70;99.90;;;;;;5115639;28;20000;-78
2022/06/11 08:38:08;;;;;;;;;;;19.80;99.90;;;;;;5116759;28;19928;-78
2022/06/11 08:40:34;;;;;;;;;;;19.90;99.90;;;;;;5126957;28;19934;-78
2022/06/11 08:43:01;;;;;;;;;;;20.00;99.90;;;;;;5130371;27;20025;-79
2022/06/11 08:45:42;;;;;;;;;;;20.10;99.90;;;;;;5113649;27;19930;-79
2022/06/11 08:48:14;;;;;;;;;;;20.20;99.90;;;;;;5109478;28;19968;-78
2022/06/11 08:50:42;;;;;;;;;;;20.30;99.90;;;;;;5112294;28;19977;-79
2022/06/11 08:53:08;;;;;;;;;;;20.50;99.90;;;;;;5119172;27;20301;-79
2022/06/11 08:55:35;;;;;;;;;;;20.40;99.90;;;;;;5121722;27;19927;-79
2022/06/11 08:58:04;;;;;;;;;;;20.40;99.90;;;;;;5126882;27;19931;-79
2022/06/11 09:00:41;;;;;;;;;;;20.50;99.90;;;;;;5119887;27;19938;-79
2022/06/11 09:03:14;;;;;;;;;;;20.60;99.90;;;;;;5124231;27;19924;-79
2022/06/11 09:05:46;;;;;;;;;;;20.60;99.90;;;;;;5132011;27;20605;-79
2022/06/11 09:08:27;;;;;;;;;;;20.70;99.90;;;;;;5127825;27;19927;-78
2022/06/11 09:11:04;;;;;;;;;;;20.70;99.90;;;;;;5120062;27;19976;-79
2022/06/11 09:13:48;;;;;;;;;;;20.80;99.90;;;;;;5125049;27;19988;-79
2022/06/11 09:16:31;;;;;;;;;;;20.80;99.90;;;;;;5115274;27;19969;-78
2022/06/11 09:19:00;;;;;;;;;;;20.80;99.90;;;;;;5128538;27;20026;-79
2022/06/11 09:21:25;;;;;;;;;;;20.70;99.90;;;;;;5121736;27;19924;-78
2022/06/11 09:23:51;;;;;;;;;;;20.80;99.90;;;;;;5131174;27;19927;-79
2022/06/11 09:26:23;;;;;;;;;;;20.70;99.90;;;;;;5118100;27;19928;-78
2022/06/11 09:29:04;;;;;;;;;;;20.80;99.90;;;;;;5123732;27;19931;-79
2022/06/11 09:31:33;;;;;;;;;;;20.70;99.90;;;;;;5120079;27;19977;-79
2022/06/11 09:33:59;;;;;;;;;;;20.60;99.90;;;;;;5118434;27;20412;-73
2022/06/11 09:36:29;;;;;;;;;;;20.60;99.90;;;;;;5118282;27;19923;-72
2022/06/11 09:38:55;;;;;;;;;;;21.00;99.90;;;;;;5128436;27;19923;-72
2022/06/11 09:41:33;;;;;;;;;;;21.40;99.90;;;;;;5114452;27;20409;-73
2022/06/11 09:44:11;;;;;;;;;;;21.50;99.90;;;;;;5117680;27;19924;-72
2022/06/11 09:46:40;;;;;;;;;;;21.70;99.90;;;;;;5120217;27;19924;-80
2022/06/11 09:49:20;;;;;;;;;;;22.00;99.90;;;;;;5120047;27;20465;-79
2022/06/11 09:51:51;;;;;;;;;;;22.10;99.90;;;;;;5123688;27;19924;-78
2022/06/11 09:54:32;;;;;;;;;;;22.10;99.90;;;;;;5124157;27;20293;-79
2022/06/11 09:57:10;;;;;;;;;;;22.40;99.90;;;;;;5129298;27;19923;-79
2022/06/11 09:59:47;;;;;;;;;;;22.60;99.90;;;;;;5129360;27;20345;-79
2022/06/11 10:02:31;;;;;;;;;;;22.40;99.60;;;;;;5126907;27;19923;-79
2022/06/11 10:04:57;;;;;;;;;;;22.20;99.20;;;;;;5121369;27;19934;-79
2022/06/11 10:07:30;;;;;;;;;;;22.10;99.30;;;;;;5122206;27;19950;-79
2022/06/11 10:09:59;;;;;;;;;;;22.10;97.60;;;;;;5130612;27;20495;-80
2022/06/11 10:12:31;;;;;;;;;;;22.40;98.50;;;;;;5113548;27;20347;-79
2022/06/11 10:15:03;;;;;;;;;;;22.70;97.80;;;;;;5123448;27;19983;-79
2022/06/11 10:17:48;;;;;;;;;;;23.00;96.20;;;;;;5125947;27;19931;-80
2022/06/11 10:20:18;;;;;;;;;;;22.90;95.70;;;;;;5111313;27;19924;-79
2022/06/11 10:22:48;;;;;;;;;;;23.00;96.50;;;;;;5106982;28;19923;-79
2022/06/11 10:25:13;;;;;;;;;;;23.10;94.30;;;;;;5127810;27;19928;-80
2022/06/11 10:27:41;;;;;;;;;;;23.00;93.60;;;;;;5104796;28;19927;-77
2022/06/11 10:30:13;;;;;;;;;;;23.00;94.80;;;;;;5122405;27;20390;-78
2022/06/11 10:32:42;;;;;;;;;;;23.10;94.50;;;;;;5127784;27;19923;-79
2022/06/11 10:35:10;;;;;;;;;;;23.20;94.70;;;;;;5120401;27;19976;-79
2022/06/11 10:37:39;;;;;;;;;;;23.40;93.90;;;;;;5128786;27;19924;-79
2022/06/11 10:40:21;;;;;;;;;;;23.60;93.60;;;;;;5130819;27;19927;-79
2022/06/11 10:42:51;;;;;;;;;;;23.80;93.40;;;;;;5113634;27;19971;-79
2022/06/11 10:45:17;;;;;;;;;;;24.20;93.40;;;;;;5113520;27;19923;-80
2022/06/11 10:47:45;;;;;;;;;;;24.50;91.60;;;;;;5125637;27;19923;-79
2022/06/11 10:50:11;;;;;;;;;;;24.70;90.80;;;;;;5109370;27;19970;-80
2022/06/11 10:52:53;;;;;;;;;;;24.90;90.20;;;;;;5110973;28;19931;-79
2022/06/11 10:55:22;;;;;;;;;;;25.00;87.20;;;;;;5110066;28;19992;-79
2022/06/11 10:57:50;;;;;;;;;;;25.10;88.50;;;;;;5124567;27;19923;-76
2022/06/11 11:00:26;;;;;;;;;;;25.20;89.60;;;;;;5116484;27;19924;-76
2022/06/11 11:03:01;;;;;;;;;;;25.30;84.30;;;;;;5123525;27;20034;-76
2022/06/11 11:05:42;;;;;;;;;;;25.40;86.00;;;;;;5092844;28;19930;-77
2022/06/11 11:08:11;;;;;;;;;;;25.60;86.20;;;;;;5117910;27;20027;-77
2022/06/11 11:10:36;;;;;;;;;;;25.80;84.10;;;;;;5117475;27;19924;-76
2022/06/11 11:13:03;;;;;;;;;;;25.90;81.30;;;;;;5115209;27;19934;-77
2022/06/11 11:15:37;;;;;;;;;;;25.90;83.30;;;;;;5111269;27;19928;-77
2022/06/11 11:18:11;;;;;;;;;;;26.00;80.30;;;;;;5112436;27;20480;-76
2022/06/11 11:20:48;;;;;;;;;;;25.80;78.70;;;;;;5108153;28;19927;-76
2022/06/11 11:23:20;;;;;;;;;;;25.40;76.90;;;;;;5107920;28;19928;-77
2022/06/11 11:25:53;;;;;;;;;;;25.40;80.50;;;;;;5111563;27;19984;-77
2022/06/11 11:28:19;;;;;;;;;;;25.40;78.40;;;;;;5107711;28;19984;-77
2022/06/11 11:30:46;;;;;;;;;;;25.40;74.50;;;;;;5107840;28;19928;-76
2022/06/11 11:33:23;;;;;;;;;;;25.30;74.70;;;;;;5108026;28;19935;-76
2022/06/11 11:35:48;;;;;;;;;;;25.40;75.30;;;;;;5109039;28;20286;-77
2022/06/11 11:38:21;;;;;;;;;;;25.60;77.90;;;;;;5109543;27;19931;-77
2022/06/11 11:41:12;;;;;;;;;;;25.80;76.00;;;;;;5109431;28;20008;-77
2022/06/11 11:43:42;;;;;;;;;;;25.90;72.50;;;;;;5080058;28;19927;-77
2022/06/11 11:46:12;;;;;;;;;;;25.90;72.90;;;;;;5108379;28;19928;-77
2022/06/11 11:48:46;;;;;;;;;;;25.80;72.90;;;;;;5108709;28;20285;-77
2022/06/11 11:51:17;;;;;;;;;;;26.00;74.60;;;;;;5115551;27;19977;-77
2022/06/11 11:54:06;;;;;;;;;;;26.20;74.90;;;;;;5108393;28;20401;-77
2022/06/11 11:56:40;;;;;;;;;;;26.40;71.50;;;;;;5110690;27;19928;-77
2022/06/11 11:59:17;;;;;;;;;;;26.50;69.30;;;;;;5108724;28;19977;-77
2022/06/11 12:01:44;;;;;;;;;;;26.50;69.50;;;;;;5109664;28;19931;-77
2022/06/11 12:04:17;;;;;;;;;;;26.50;69.50;;;;;;5112381;28;19927;-76
2022/06/11 12:06:45;;;;;;;;;;;26.30;68.60;;;;;;5108311;28;20309;-77
2022/06/11 12:09:32;;;;;;;;;;;26.30;66.20;;;;;;5120499;27;20393;-76
2022/06/11 12:12:07;;;;;;;;;;;26.20;67.00;;;;;;5111089;28;19928;-76
2022/06/11 12:14:35;;;;;;;;;;;26.00;65.90;;;;;;5109944;28;19927;-77
2022/06/11 12:17:12;;;;;;;;;;;26.00;65.30;;;;;;5109123;28;19934;-77
2022/06/11 12:19:37;;;;;;;;;;;26.10;67.40;;;;;;5126357;27;20014;-78
2022/06/11 12:22:06;;;;;;;;;;;26.20;68.10;;;;;;5109894;28;20476;-77
2022/06/11 12:24:43;;;;;;;;;;;26.30;66.60;;;;;;5109844;28;20022;-77
2022/06/11 12:27:15;;;;;;;;;;;26.20;64.60;;;;;;5102658;28;19959;-77
2022/06/11 12:29:47;;;;;;;;;;;26.20;65.80;;;;;;5111885;28;19934;-77
2022/06/11 12:32:20;;;;;;;;;;;26.10;65.10;;;;;;5112409;28;20014;-78
2022/06/11 12:34:46;;;;;;;;;;;26.30;65.20;;;;;;5112190;27;20382;-78
2022/06/11 12:37:19;;;;;;;;;;;26.50;65.70;;;;;;5115452;27;19934;-77
2022/06/11 12:39:50;;;;;;;;;;;26.60;66.10;;;;;;5113613;27;19924;-76
2022/06/11 12:42:27;;;;;;;;;;;26.60;63.30;;;;;;5111814;28;19924;-77
2022/06/11 12:45:01;;;;;;;;;;;26.70;65.20;;;;;;5112328;28;19932;-76
2022/06/11 12:47:40;;;;;;;;;;;26.90;63.70;;;;;;5113027;28;19924;-77
2022/06/11 12:50:12;;;;;;;;;;;27.10;64.10;;;;;;5124096;27;19924;-78
2022/06/11 12:52:45;;;;;;;;;;;27.40;63.20;;;;;;5112229;28;19924;-77
2022/06/11 12:55:26;;;;;;;;;;;27.50;60.90;;;;;;5113504;27;20409;-77
2022/06/11 12:57:52;;;;;;;;;;;27.60;61.60;;;;;;5112088;28;20445;-77
2022/06/11 13:00:24;;;;;;;;;;;27.70;61.40;;;;;;5112260;28;20002;-78
2022/06/11 13:02:55;;;;;;;;;;;27.60;59.90;;;;;;5112395;28;19946;-77
2022/06/11 13:05:39;;;;;;;;;;;27.50;59.40;;;;;;5113518;28;19981;-77
2022/06/11 13:08:05;;;;;;;;;;;27.10;57.60;;;;;;5118568;27;19924;-77
2022/06/11 13:10:36;;;;;;;;;;;26.90;59.90;;;;;;5129612;27;19928;-77
2022/06/11 13:13:16;;;;;;;;;;;27.00;61.20;;;;;;5111977;28;20460;-77
2022/06/11 13:15:54;;;;;;;;;;;27.20;60.60;;;;;;5111702;28;19930;-78
2022/06/11 13:18:39;;;;;;;;;;;27.30;60.70;;;;;;5111927;28;19931;-77
2022/06/11 13:21:23;;;;;;;;;;;27.30;58.60;;;;;;5126527;27;19927;-77
2022/06/11 13:24:08;;;;;;;;;;;27.30;57.60;;;;;;5128401;27;19923;-78
2022/06/11 13:26:44;;;;;;;;;;;27.30;58.20;;;;;;5132328;27;19927;-78
2022/06/11 13:29:28;;;;;;;;;;;27.20;57.00;;;;;;5127343;27;19923;-77
2022/06/11 13:31:56;;;;;;;;;;;27.10;57.30;;;;;;5117894;27;19937;-78
2022/06/11 13:34:22;;;;;;;;;;;27.10;57.30;;;;;;5130180;27;19931;-78
2022/06/11 13:37:06;;;;;;;;;;;27.30;58.50;;;;;;5129155;27;19924;-78
2022/06/11 13:39:32;;;;;;;;;;;27.60;56.50;;;;;;5131962;27;19987;-78
2022/06/11 13:41:57;;;;;;;;;;;27.60;56.10;;;;;;5133371;27;19924;-78
2022/06/11 13:44:49;;;;;;;;;;;27.50;56.20;;;;;;5133114;27;19969;-78
2022/06/11 13:47:23;;;;;;;;;;;27.60;56.60;;;;;;5119361;27;19930;-78
2022/06/11 13:50:02;;;;;;;;;;;27.70;57.10;;;;;;5132875;27;19971;-78
2022/06/11 13:55:21;;;;;;;;;;;27.90;56.30;;;;;;5132601;27;19930;-78
2022/06/11 13:57:56;;;;;;;;;;;28.10;57.60;;;;;;5131854;27;19974;-79
2022/06/11 14:00:36;;;;;;;;;;;28.10;55.70;;;;;;5132307;27;19927;-78
2022/06/11 14:03:11;;;;;;;;;;;28.30;57.00;;;;;;5131634;27;19923;-79
2022/06/11 14:05:39;;;;;;;;;;;28.40;56.80;;;;;;5122284;27;19932;-79
2022/06/11 14:08:06;;;;;;;;;;;28.30;55.70;;;;;;5123839;27;19968;-79
2022/06/11 14:10:33;;;;;;;;;;;27.90;54.80;;;;;;5117538;27;19938;-79
2022/06/11 14:13:08;;;;;;;;;;;27.50;55.80;;;;;;5120768;27;19930;-79
2022/06/11 14:15:35;;;;;;;;;;;27.70;57.10;;;;;;5125132;27;19923;-79
2022/06/11 14:18:04;;;;;;;;;;;28.00;57.30;;;;;;5126229;27;20404;-79
2022/06/11 14:20:33;;;;;;;;;;;28.10;55.30;;;;;;5131832;27;20002;-79
2022/06/11 14:23:00;;;;;;;;;;;28.00;54.60;;;;;;5114889;27;19928;-79
2022/06/11 14:25:44;;;;;;;;;;;27.80;56.20;;;;;;5116935;27;20111;-80
2022/06/11 14:28:16;;;;;;;;;;;27.60;55.90;;;;;;5122914;27;19923;-79
2022/06/11 14:30:53;;;;;;;;;;;27.50;57.10;;;;;;5115671;27;19931;-80
2022/06/11 14:33:22;;;;;;;;;;;27.90;56.70;;;;;;5111070;28;19924;-80